Terminal Aerodrome Forecast
Issued by NWS

Home | Current Version | Previous Version | Text Only | Print | Product List | Glossary On
Versions: 1 2 3 4 5 6 7 8 9 10 11 12 13 14 15 16 17
000
FTUS45 KGJT 251221 AAA
TAFTEX
TAF AMD
KTEX 251221Z 2512/2612 00000KT 2SM -SN VCSH SCT005 OVC011
      TEMPO 2512/2516 3SM -SHSN SCT012 BKN025 OVC050
     FM252000 29008KT 3SM -SHRASN VCTS OVC035CB
     FM260100 30006KT P6SM VCSH BKN035
     FM260600 23006KT P6SM BKN035=

USA.gov is the U.S. government's official web portal to all federal, state and local government web resources and services.